Airfield :
LOGIN :

Register | Disclaimer

   EN    FR    IT 

 










Legend :    VFR   Marginal VFR   IFR   Intensive IFR   Very Intensive IFR
Visi :
Ceiling :
>= 8 km
>= 3000ft
5 to 8 km
1000 to 3000 ft
1500m to 5 km
500 to 1000 ft
800 to 1500m
200 to 500 ft
< 800m
< 200 ft
Symbols :   Thunderstorms  Fog  Heavy snow  Heavy precipitations  Wind > 20 kt
SIGMETs :     Misc.  Thunderstorms  Icing  Turbulence  Mountain Waves  Volcanic Ashes






- Airport Elevation : 1487 ft
- IATA code : MUC


EDDM - München Franz Josef Strauss

CURRENT METAR :
  • 031920Z 29003KT CAVOK 21/08 Q1002 NOSIG

EXPIRED METARs :
  • 031850Z 28004KT 250V310 CAVOK 22/08 Q1002 NOSIG
  • 031820Z 32003KT CAVOK 22/09 Q1002 NOSIG
  • 031750Z 25003KT CAVOK 24/08 Q1002 NOSIG
  • 031720Z 28003KT 240V310 CAVOK 25/07 Q1002 NOSIG
  • 031650Z 30006KT 270V330 CAVOK 25/07 Q1002 NOSIG

TAF TAF EDDM
Valid from the 03 at 18:00 until the 05 at 00:00 UTC


031700Z 0318/0424 27008KT CAVOK
BECMG 0318/0320 VRB03KT
BECMG 0408/0410 27005KT
TEMPO 0414/0418 24012KT TSRA SCT045CB
TEMPO 0418/0420 28020G35KT 4000 TSRA BKN012 BKN020CB
BECMG 0419/0421 25010KT



MET'MAP, your aeronautical weather chart ! - Copyright ORBIFLY December 2007 - Disclaimer

ORBIFLY MET'MAP TEAM :

Programming & Development : Alexandra Zaïnal
Concept & original design : Baudouin d'Aumeries
Assistance for programming : Marc-Olivier Méhu
Technical & hardware support : Manuel Goepfert

Contact : metmap@orbifly.com




SOURCES & CREDITS :

   NOAA